createdAt,value
2023-04-21T00:01:26.241Z,8.05
2023-04-21T00:03:57.248Z,7.75
2023-04-21T00:06:28.715Z,8.10
2023-04-21T00:08:59.404Z,7.62
2023-04-21T00:11:29.973Z,7.47
2023-04-21T00:14:00.611Z,7.53
2023-04-21T00:16:31.131Z,7.92
2023-04-21T00:19:02.420Z,8.08
2023-04-21T00:21:35.426Z,7.47
2023-04-21T00:24:09.511Z,7.62
2023-04-21T00:26:40.230Z,7.83
2023-04-21T00:29:10.741Z,7.45
2023-04-21T00:31:41.375Z,7.90
2023-04-21T00:34:12.003Z,7.78
2023-04-21T00:36:42.531Z,8.33
2023-04-21T00:39:14.198Z,7.65
2023-04-21T00:41:44.772Z,8.15
2023-04-21T00:44:15.554Z,8.38
2023-04-21T00:46:46.119Z,8.70
2023-04-21T00:49:16.862Z,8.10
2023-04-21T00:51:47.630Z,8.53
2023-04-21T00:54:19.502Z,8.65
2023-04-21T00:56:50.147Z,8.60
2023-04-21T00:59:21.315Z,8.80
2023-04-21T01:01:53.011Z,8.78
2023-04-21T01:04:23.684Z,8.40
2023-04-21T01:06:54.251Z,9.10
2023-04-21T01:09:24.832Z,8.70
2023-04-21T01:12:06.407Z,8.78
2023-04-21T01:14:38.833Z,9.28
2023-04-21T01:17:10.464Z,9.58
2023-04-21T01:19:43.613Z,9.30
2023-04-21T01:22:15.390Z,9.80
2023-04-21T01:24:48.039Z,10.20
2023-04-21T01:27:22.321Z,9.63
2023-04-21T01:29:53.881Z,9.90
2023-04-21T01:32:27.564Z,10.48
2023-04-21T01:34:59.304Z,9.40
2023-04-21T01:37:32.268Z,10.40
2023-04-21T01:40:05.627Z,10.58
2023-04-21T01:42:38.730Z,10.45
2023-04-21T01:45:09.721Z,11.47
2023-04-21T01:47:42.129Z,10.23
2023-04-21T01:50:12.824Z,10.28
2023-04-21T01:52:43.386Z,10.32
2023-04-21T01:55:14.975Z,10.65
2023-04-21T01:57:45.442Z,10.38
2023-04-21T02:00:18.790Z,10.70
2023-04-21T02:02:49.617Z,11.10
2023-04-21T02:05:20.501Z,10.88
2023-04-21T02:07:51.404Z,10.55
2023-04-21T02:10:22.455Z,10.88
2023-04-21T02:12:52.996Z,10.68
2023-04-21T02:15:23.452Z,10.50
2023-04-21T02:17:53.992Z,10.75
2023-04-21T02:20:24.589Z,11.20
2023-04-21T02:22:55.159Z,10.88
2023-04-21T02:25:25.691Z,10.98
2023-04-21T02:27:57.305Z,10.78
2023-04-21T02:30:28.285Z,11.73
2023-04-21T02:32:59.686Z,11.10
2023-04-21T02:35:30.222Z,10.88
2023-04-21T02:38:02.409Z,11.88
2023-04-21T02:40:32.922Z,12.23
2023-04-21T02:43:04.345Z,13.15
2023-04-21T02:45:34.919Z,13.30
2023-04-21T02:48:05.741Z,14.03
2023-04-21T02:50:36.783Z,14.20
2023-04-21T02:53:08.190Z,13.48
2023-04-21T02:55:38.714Z,12.85
2023-04-21T02:58:09.317Z,12.27
2023-04-21T03:00:40.369Z,11.48
2023-04-21T03:03:11.543Z,11.93
2023-04-21T03:05:44.980Z,11.65
2023-04-21T03:08:17.280Z,11.28
2023-04-21T03:10:47.773Z,11.03
2023-04-21T03:13:20.416Z,11.10
2023-04-21T03:15:51.501Z,11.57
2023-04-21T03:18:22.123Z,11.15
2023-04-21T03:20:53.890Z,11.55
2023-04-21T03:23:24.432Z,12.03
2023-04-21T03:25:55.621Z,11.60
2023-04-21T03:28:26.297Z,11.80
2023-04-21T03:30:56.984Z,10.88
2023-04-21T03:33:27.695Z,12.28
2023-04-21T03:35:59.893Z,11.83
2023-04-21T03:38:30.838Z,12.18
2023-04-21T03:41:01.301Z,11.90
2023-04-21T03:43:33.250Z,12.07
2023-04-21T03:46:06.739Z,12.13
2023-04-21T03:48:37.458Z,11.90
2023-04-21T03:51:09.077Z,11.85
2023-04-21T03:53:39.998Z,11.83
2023-04-21T03:56:11.102Z,12.28
2023-04-21T03:58:41.721Z,12.10
2023-04-21T04:01:12.652Z,12.30
2023-04-21T04:03:44.265Z,12.23
2023-04-21T04:06:14.934Z,12.20
2023-04-21T04:08:46.370Z,12.00
2023-04-21T04:11:17.034Z,12.40
2023-04-21T04:13:47.734Z,12.10
2023-04-21T04:16:19.727Z,12.10
2023-04-21T04:18:53.437Z,12.88
2023-04-21T04:21:26.392Z,12.20
2023-04-21T04:23:57.714Z,12.33
2023-04-21T04:26:31.484Z,12.58
2023-04-21T04:29:02.470Z,13.40
2023-04-21T04:31:33.346Z,12.30
2023-04-21T04:34:04.976Z,12.88
2023-04-21T04:36:35.562Z,12.82
2023-04-21T04:39:08.298Z,12.55
2023-04-21T04:41:38.986Z,12.63
2023-04-21T04:44:11.208Z,12.95
2023-04-21T04:46:42.988Z,12.80
2023-04-21T04:49:15.218Z,12.93
2023-04-21T04:51:45.798Z,13.22
2023-04-21T04:54:18.389Z,12.13
2023-04-21T04:56:49.188Z,11.70
2023-04-21T04:59:19.722Z,12.33
2023-04-21T05:01:50.392Z,13.18
2023-04-21T05:04:21.519Z,12.78
2023-04-21T05:06:53.230Z,12.70
2023-04-21T05:09:23.825Z,12.50
2023-04-21T05:11:56.811Z,12.47
2023-04-21T05:14:28.428Z,11.65
2023-04-21T05:17:01.454Z,11.78
2023-04-21T05:19:31.895Z,11.70
2023-04-21T05:22:02.457Z,11.15
2023-04-21T05:24:34.095Z,11.88
2023-04-21T05:27:04.827Z,12.05
2023-04-21T05:29:37.435Z,12.18
2023-04-21T05:32:07.801Z,12.05
2023-04-21T05:34:38.603Z,11.78
2023-04-21T05:37:11.898Z,12.53
2023-04-21T05:39:42.737Z,12.50
2023-04-21T05:42:14.920Z,11.68
2023-04-21T05:44:45.952Z,12.53
2023-04-21T05:47:16.671Z,11.93
2023-04-21T05:49:48.956Z,12.25
2023-04-21T05:52:19.483Z,11.43
2023-04-21T05:54:50.347Z,12.28
2023-04-21T05:57:20.857Z,11.65
2023-04-21T05:59:51.818Z,12.18
2023-04-21T06:02:23.676Z,12.18
2023-04-21T06:04:55.805Z,11.57
2023-04-21T06:07:28.394Z,11.55
2023-04-21T06:09:58.563Z,12.30
2023-04-21T06:12:29.306Z,11.53
2023-04-21T06:15:00.041Z,12.60
2023-04-21T06:17:30.925Z,12.00
2023-04-21T06:20:01.631Z,11.80
2023-04-21T06:22:33.057Z,11.68
2023-04-21T06:25:03.658Z,11.80
2023-04-21T06:27:34.591Z,11.95
2023-04-21T06:30:07.841Z,12.18
2023-04-21T06:32:38.459Z,11.68
2023-04-21T06:35:10.033Z,11.55
2023-04-21T06:37:41.961Z,12.40
2023-04-21T06:40:15.390Z,11.75
2023-04-21T06:42:46.228Z,12.53
2023-04-21T06:45:17.230Z,12.58
2023-04-21T06:47:49.328Z,12.23
2023-04-21T06:50:21.374Z,12.93
2023-04-21T06:52:52.116Z,12.95
2023-04-21T06:55:22.653Z,12.75
2023-04-21T06:57:55.463Z,13.05
2023-04-21T07:00:25.988Z,13.32
2023-04-21T07:02:56.782Z,12.03
2023-04-21T07:05:31.091Z,12.23
2023-04-21T07:08:02.655Z,11.90
2023-04-21T07:10:33.420Z,11.90
2023-04-21T07:13:08.788Z,12.35
2023-04-21T07:15:39.566Z,15.10
2023-04-21T07:18:10.534Z,14.45
2023-04-21T07:20:41.722Z,15.05
2023-04-21T07:23:12.413Z,14.73
2023-04-21T07:25:43.070Z,15.03
2023-04-21T07:28:15.346Z,14.10
2023-04-21T07:30:46.032Z,13.60
2023-04-21T07:33:16.719Z,14.28
2023-04-21T07:35:47.331Z,12.95
2023-04-21T07:38:19.372Z,12.65
2023-04-21T07:40:50.015Z,13.15
2023-04-21T07:43:23.187Z,12.18
2023-04-21T07:45:54.057Z,12.82
2023-04-21T07:48:26.072Z,12.50
2023-04-21T07:50:58.333Z,12.03
2023-04-21T07:53:28.845Z,12.43
2023-04-21T07:55:59.807Z,12.07
2023-04-21T07:58:30.375Z,12.15
2023-04-21T08:01:00.967Z,13.05
2023-04-21T08:03:31.755Z,11.57
2023-04-21T08:06:03.417Z,11.97
2023-04-21T08:08:34.379Z,11.80
2023-04-21T08:11:04.998Z,11.45
2023-04-21T08:13:36.261Z,12.10
2023-04-21T08:19:33.277Z,11.88
2023-04-21T08:22:05.278Z,11.85
2023-04-21T08:24:38.702Z,11.80
2023-04-21T08:27:10.066Z,11.60
2023-04-21T08:29:40.907Z,11.08
2023-04-21T08:32:13.355Z,10.85
2023-04-21T08:34:45.867Z,10.72
2023-04-21T08:37:16.586Z,10.85
2023-04-21T08:39:48.209Z,11.22
2023-04-21T08:42:19.541Z,10.53
2023-04-21T08:44:51.896Z,11.25
2023-04-21T08:47:26.802Z,11.88
2023-04-21T08:50:00.451Z,11.28
2023-04-21T08:52:32.537Z,10.80
2023-04-21T08:55:03.842Z,11.25
2023-04-21T08:57:34.799Z,10.80
2023-04-21T09:00:08.083Z,10.00
2023-04-21T09:02:57.205Z,10.15
2023-04-21T09:05:26.779Z,10.10
2023-04-21T09:08:14.634Z,10.43
2023-04-21T09:10:47.586Z,9.80
2023-04-21T09:13:20.328Z,10.60
2023-04-21T09:15:54.957Z,10.95
2023-04-21T09:18:28.667Z,10.43
2023-04-21T09:21:17.341Z,10.75
2023-04-21T09:23:50.886Z,10.50
2023-04-21T09:26:25.936Z,10.40
2023-04-21T09:28:56.618Z,11.73
2023-04-21T09:31:29.259Z,10.63
2023-04-21T09:34:01.709Z,10.60
2023-04-21T09:36:32.572Z,10.50
2023-04-21T09:41:37.149Z,9.85
2023-04-21T09:44:07.907Z,10.08
2023-04-21T09:46:38.757Z,9.58
2023-04-21T09:49:12.544Z,9.60
2023-04-21T09:52:10.389Z,9.55
2023-04-21T09:54:36.645Z,9.60
2023-04-21T09:57:06.926Z,9.73
2023-04-21T09:59:39.107Z,9.98
2023-04-21T10:02:10.536Z,9.13
2023-04-21T10:04:43.389Z,9.55
2023-04-21T10:07:14.429Z,9.23
2023-04-21T10:09:48.391Z,9.53
2023-04-21T10:12:20.859Z,8.55
2023-04-21T10:14:55.579Z,9.50
2023-04-21T10:17:27.536Z,8.70
2023-04-21T10:19:59.718Z,9.45
2023-04-21T10:22:39.789Z,8.90
2023-04-21T10:25:11.580Z,9.13
2023-04-21T10:27:44.374Z,8.98
2023-04-21T10:30:26.826Z,9.45
2023-04-21T10:33:07.240Z,8.40
2023-04-21T10:36:01.268Z,8.13
2023-04-21T10:38:45.017Z,7.97
2023-04-21T10:41:33.149Z,8.50
2023-04-21T10:44:21.170Z,8.50
2023-04-21T10:46:53.467Z,9.13
2023-04-21T10:49:31.358Z,8.60
2023-04-21T10:52:03.807Z,7.95
2023-04-21T10:54:58.813Z,8.08
2023-04-21T10:57:32.543Z,8.03
2023-04-21T11:00:05.614Z,8.23
2023-04-21T11:02:38.671Z,7.92
2023-04-21T11:05:12.338Z,7.97
2023-04-21T11:07:45.270Z,8.60
2023-04-21T11:10:15.823Z,7.95
2023-04-21T11:12:46.320Z,8.48
2023-04-21T11:15:16.947Z,7.97
2023-04-21T11:17:48.506Z,8.38
2023-04-21T11:20:19.149Z,8.38
2023-04-21T11:22:53.770Z,8.55
2023-04-21T11:25:24.474Z,7.97
2023-04-21T11:27:58.541Z,7.70
2023-04-21T11:30:35.841Z,7.87
2023-04-21T11:33:07.256Z,7.87
2023-04-21T11:35:40.956Z,8.15
2023-04-21T11:38:13.179Z,8.25
2023-04-21T11:40:51.829Z,7.78
2023-04-21T11:43:22.870Z,8.20
2023-04-21T11:45:53.401Z,8.08
2023-04-21T11:48:25.083Z,8.30
2023-04-21T11:50:55.663Z,8.10
2023-04-21T11:53:28.926Z,8.20
2023-04-21T11:55:58.993Z,8.43
2023-04-21T11:58:30.309Z,8.58
2023-04-21T12:01:04.012Z,7.90
2023-04-21T12:03:34.762Z,7.92
2023-04-21T12:06:07.506Z,7.83
2023-04-21T12:08:42.578Z,7.62
2023-04-21T12:11:15.006Z,7.62
2023-04-21T12:13:46.535Z,7.97
2023-04-21T12:16:17.332Z,7.60
2023-04-21T12:18:49.921Z,8.08
2023-04-21T12:21:21.046Z,7.30
2023-04-21T12:23:51.545Z,8.00
2023-04-21T12:26:24.205Z,8.13
2023-04-21T12:28:55.586Z,7.87
2023-04-21T12:31:26.173Z,7.92
2023-04-21T12:33:57.669Z,8.50
2023-04-21T12:36:30.378Z,7.83
2023-04-21T12:39:01.037Z,7.95
2023-04-21T12:41:31.867Z,7.05
2023-04-21T12:44:02.554Z,8.08
2023-04-21T12:46:39.091Z,7.47
2023-04-21T12:49:11.751Z,7.87
2023-04-21T12:51:42.423Z,7.83
2023-04-21T12:54:13.984Z,7.95
2023-04-21T12:56:44.936Z,7.20
2023-04-21T12:59:15.766Z,7.70
2023-04-21T13:01:46.663Z,7.15
2023-04-21T13:04:19.550Z,7.35
2023-04-21T13:06:50.257Z,7.17
2023-04-21T13:09:20.967Z,6.83
2023-04-21T13:11:51.745Z,7.17
2023-04-21T13:14:22.290Z,7.83
2023-04-21T13:16:53.515Z,7.70
2023-04-21T13:19:25.758Z,7.53
2023-04-21T13:21:56.552Z,7.40
2023-04-21T13:24:29.244Z,7.30
2023-04-21T13:27:02.745Z,6.78
2023-04-21T13:29:35.124Z,6.80
2023-04-21T13:32:07.902Z,7.42
2023-04-21T13:34:38.585Z,6.87
2023-04-21T13:37:10.903Z,7.08
2023-04-21T13:39:41.597Z,6.72
2023-04-21T13:42:14.209Z,6.97
2023-04-21T13:44:44.856Z,7.17
2023-04-21T13:47:17.098Z,7.40
2023-04-21T13:49:53.382Z,7.33
2023-04-21T13:52:24.135Z,7.45
2023-04-21T13:54:59.084Z,7.33
2023-04-21T13:57:29.737Z,6.87
2023-04-21T14:00:01.598Z,7.50
2023-04-21T14:02:33.234Z,7.12
2023-04-21T14:05:04.712Z,7.92
2023-04-21T14:07:37.395Z,7.42
2023-04-21T14:10:13.475Z,7.40
2023-04-21T14:12:45.299Z,7.08
2023-04-21T14:15:16.894Z,7.37
2023-04-21T14:17:48.268Z,7.30
2023-04-21T14:20:19.103Z,7.37
2023-04-21T14:22:50.906Z,7.30
2023-04-21T14:25:21.470Z,7.37
2023-04-21T14:27:51.985Z,7.85
2023-04-21T14:30:23.708Z,7.08
2023-04-21T14:33:18.333Z,6.70
2023-04-21T14:35:49.357Z,7.50
2023-04-21T14:38:21.590Z,7.42
2023-04-21T14:40:54.092Z,7.33
2023-04-21T14:43:24.727Z,6.83
2023-04-21T14:45:55.541Z,6.85
2023-04-21T14:48:27.835Z,7.05
2023-04-21T14:51:00.912Z,6.83
2023-04-21T14:53:35.899Z,8.05
2023-04-21T14:56:08.758Z,6.70
2023-04-21T14:58:40.614Z,7.12
2023-04-21T15:01:11.331Z,6.92
2023-04-21T15:03:42.733Z,7.08
2023-04-21T15:06:13.918Z,6.87
2023-04-21T15:08:47.209Z,6.70
2023-04-21T15:11:17.873Z,7.03
2023-04-21T15:13:48.572Z,6.87
2023-04-21T15:16:20.067Z,6.80
2023-04-21T15:18:52.233Z,6.17
2023-04-21T15:21:23.304Z,6.67
2023-04-21T15:23:55.558Z,7.50
2023-04-21T15:26:26.920Z,6.80
2023-04-21T15:28:57.904Z,6.65
2023-04-21T15:31:29.981Z,7.08
2023-04-21T15:34:02.150Z,6.50
2023-04-21T15:36:33.060Z,6.70
2023-04-21T15:39:04.014Z,6.90
2023-04-21T15:41:35.943Z,6.70
2023-04-21T15:44:07.501Z,6.55
2023-04-21T15:46:38.194Z,6.28
2023-04-21T15:49:08.884Z,7.03
2023-04-21T15:51:42.194Z,6.37
2023-04-21T15:54:12.880Z,7.08
2023-04-21T15:56:44.518Z,6.53
2023-04-21T15:59:19.063Z,6.95
2023-04-21T16:01:51.480Z,6.53
2023-04-21T16:04:26.674Z,6.40
2023-04-21T16:07:02.208Z,6.85
2023-04-21T16:09:33.250Z,7.28
2023-04-21T16:12:05.862Z,6.72
2023-04-21T16:14:51.259Z,6.45
2023-04-21T16:17:11.659Z,6.20
2023-04-21T16:19:46.133Z,6.83
2023-04-21T16:22:18.979Z,6.83
2023-04-21T16:24:50.920Z,5.87
2023-04-21T16:27:23.159Z,6.67
2023-04-21T16:29:56.021Z,6.30
2023-04-21T16:32:28.775Z,5.92
2023-04-21T16:34:59.915Z,7.05
2023-04-21T16:37:30.937Z,6.20
2023-04-21T16:40:06.198Z,6.20
2023-04-21T16:42:37.380Z,6.60
2023-04-21T16:45:08.856Z,6.67
2023-04-21T16:47:42.529Z,6.47
2023-04-21T16:50:14.840Z,6.37
2023-04-21T16:52:47.127Z,6.70
2023-04-21T16:55:19.670Z,5.95
2023-04-21T16:57:50.457Z,6.40
2023-04-21T17:00:21.666Z,6.05
2023-04-21T17:02:53.587Z,6.05
2023-04-21T17:05:24.990Z,6.08
2023-04-21T17:07:55.978Z,6.45
2023-04-21T17:10:27.217Z,6.15
2023-04-21T17:12:57.848Z,6.10
2023-04-21T17:15:30.441Z,5.95
2023-04-21T17:18:02.897Z,5.47
2023-04-21T17:20:35.072Z,6.15
2023-04-21T17:23:06.404Z,5.80
2023-04-21T17:25:39.175Z,5.92
2023-04-21T17:28:14.348Z,6.00
2023-04-21T17:30:46.064Z,5.80
2023-04-21T17:33:17.753Z,5.80
2023-04-21T17:36:02.137Z,5.97
2023-04-21T17:38:21.129Z,5.62
2023-04-21T17:40:52.127Z,6.05
2023-04-21T17:43:23.643Z,5.80
2023-04-21T17:45:55.273Z,6.08
2023-04-21T17:48:27.649Z,6.03
2023-04-21T17:50:58.930Z,5.70
2023-04-21T17:53:29.686Z,5.37
2023-04-21T17:56:02.222Z,5.50
2023-04-21T17:58:35.661Z,5.60
2023-04-21T18:01:07.164Z,5.92
2023-04-21T18:03:40.473Z,5.72
2023-04-21T18:06:13.534Z,5.75
2023-04-21T18:08:46.226Z,5.90
2023-04-21T18:11:18.378Z,6.08
2023-04-21T18:13:48.904Z,5.55
2023-04-21T18:16:21.892Z,6.00
2023-04-21T18:18:52.457Z,5.80
2023-04-21T18:21:24.376Z,5.87
2023-04-21T18:23:57.778Z,6.17
2023-04-21T18:26:28.282Z,5.83
2023-04-21T18:28:58.769Z,5.65
2023-04-21T18:31:30.132Z,5.90
2023-04-21T18:34:01.309Z,5.80
2023-04-21T18:36:33.279Z,5.62
2023-04-21T18:39:04.700Z,5.90
2023-04-21T18:41:35.498Z,5.92
2023-04-21T18:44:06.118Z,5.60
2023-04-21T18:46:36.892Z,6.53
2023-04-21T18:49:07.633Z,5.72
2023-04-21T18:51:38.236Z,5.83
2023-04-21T18:54:09.170Z,6.03
2023-04-21T18:56:40.006Z,6.10
2023-04-21T18:59:12.036Z,6.05
2023-04-21T19:01:42.829Z,5.55
2023-04-21T19:04:14.273Z,5.50
2023-04-21T19:06:45.059Z,5.70
2023-04-21T19:09:15.708Z,5.30
2023-04-21T19:11:47.264Z,5.92
2023-04-21T19:14:19.334Z,5.95
2023-04-21T19:16:51.828Z,5.35
2023-04-21T19:19:22.675Z,5.33
2023-04-21T19:21:53.383Z,5.35
2023-04-21T19:24:24.093Z,5.17
2023-04-21T19:26:56.886Z,5.75
2023-04-21T19:29:27.455Z,5.35
2023-04-21T19:31:57.968Z,5.55
2023-04-21T19:34:28.444Z,5.78
2023-04-21T19:36:59.219Z,5.17
2023-04-21T19:39:30.878Z,5.55
2023-04-21T19:42:01.415Z,5.50
2023-04-21T19:44:32.034Z,5.87
2023-04-21T19:47:03.392Z,5.67
2023-04-21T19:49:33.855Z,5.62
2023-04-21T19:52:04.322Z,5.33
2023-04-21T19:54:36.389Z,5.83
2023-04-21T19:57:07.099Z,5.37
2023-04-21T19:59:38.050Z,5.45
2023-04-21T20:02:09.503Z,5.83
2023-04-21T20:04:40.371Z,5.70
2023-04-21T20:07:10.902Z,5.60
2023-04-21T20:09:41.517Z,5.72
2023-04-21T20:12:12.151Z,5.95
2023-04-21T20:14:43.124Z,5.83
2023-04-21T20:17:13.887Z,6.05
2023-04-21T20:19:46.336Z,5.78
2023-04-21T20:22:16.889Z,5.85
2023-04-21T20:24:47.404Z,6.40
2023-04-21T20:27:17.883Z,6.85
2023-04-21T20:29:48.515Z,5.65
2023-04-21T20:32:19.278Z,5.50
2023-04-21T20:34:51.744Z,6.58
2023-04-21T20:37:23.111Z,6.28
2023-04-21T20:39:53.991Z,6.45
2023-04-21T20:42:25.250Z,6.12
2023-04-21T20:44:55.870Z,6.58
2023-04-21T20:47:26.381Z,6.37
2023-04-21T20:49:59.314Z,6.55
2023-04-21T20:52:29.935Z,5.67
2023-04-21T20:55:00.449Z,6.20
2023-04-21T20:57:31.285Z,6.08
2023-04-21T21:00:02.115Z,5.80
2023-04-21T21:02:34.203Z,6.53
2023-04-21T21:05:04.982Z,6.25
2023-04-21T21:07:36.869Z,7.00
2023-04-21T21:10:08.152Z,6.97
2023-04-21T21:12:38.761Z,6.45
2023-04-21T21:15:10.074Z,6.30
2023-04-21T21:17:41.267Z,6.60
2023-04-21T21:20:12.428Z,6.05
2023-04-21T21:22:43.231Z,6.33
2023-04-21T21:25:13.752Z,6.92
2023-04-21T21:27:44.414Z,7.50
2023-04-21T21:30:15.113Z,6.85
2023-04-21T21:32:46.524Z,6.70
2023-04-21T21:35:17.105Z,7.20
2023-04-21T21:37:48.087Z,7.22
2023-04-21T21:40:18.548Z,7.00
2023-04-21T21:42:49.127Z,6.75
2023-04-21T21:45:19.591Z,6.53
2023-04-21T21:47:51.068Z,6.83
2023-04-21T21:50:21.702Z,7.03
2023-04-21T21:52:52.361Z,6.95
2023-04-21T21:55:23.088Z,7.00
2023-04-21T21:57:54.170Z,7.65
2023-04-21T22:00:26.503Z,7.30
2023-04-21T22:02:57.370Z,7.20
2023-04-21T22:05:29.019Z,6.90
2023-04-21T22:07:59.666Z,9.50
2023-04-21T22:10:30.109Z,6.65
2023-04-21T22:13:00.846Z,7.28
2023-04-21T22:15:31.186Z,7.95
2023-04-21T22:18:02.132Z,7.67
2023-04-21T22:20:33.232Z,6.80
2023-04-21T22:23:04.875Z,6.90
2023-04-21T22:25:35.456Z,6.97
2023-04-21T22:28:09.980Z,7.30
2023-04-21T22:30:43.313Z,7.30
2023-04-21T22:33:15.542Z,7.80
2023-04-21T22:35:46.086Z,7.90
2023-04-21T22:38:19.955Z,7.75
2023-04-21T22:40:50.840Z,7.17
2023-04-21T22:43:21.457Z,7.58
2023-04-21T22:45:53.593Z,6.87
2023-04-21T22:48:26.303Z,7.00
2023-04-21T22:50:57.336Z,7.28
2023-04-21T22:53:31.356Z,6.83
2023-04-21T22:56:05.438Z,8.58
2023-04-21T22:58:37.708Z,8.13
2023-04-21T23:01:09.436Z,7.90
2023-04-21T23:03:40.188Z,8.40
2023-04-21T23:06:11.034Z,7.53
2023-04-21T23:08:42.944Z,7.15
2023-04-21T23:11:15.033Z,7.37
2023-04-21T23:13:45.810Z,7.33
2023-04-21T23:16:21.297Z,7.28
2023-04-21T23:18:51.978Z,7.15
2023-04-21T23:21:22.551Z,7.87
2023-04-21T23:23:54.267Z,7.42
2023-04-21T23:26:26.712Z,6.80
2023-04-21T23:29:00.163Z,7.50
2023-04-21T23:31:32.025Z,7.85
2023-04-21T23:34:03.003Z,7.53
2023-04-21T23:36:33.558Z,6.97
2023-04-21T23:39:05.474Z,7.00
2023-04-21T23:41:36.109Z,7.12
2023-04-21T23:44:06.785Z,7.00
2023-04-21T23:46:37.778Z,6.25
2023-04-21T23:49:08.797Z,6.60
2023-04-21T23:51:40.790Z,7.50
2023-04-21T23:54:13.343Z,6.60
2023-04-21T23:56:43.934Z,7.47
2023-04-21T23:59:16.435Z,6.37
